Time;durP1;ratioP1;P1;durP2;ratioP2;P2;SDS_P1;SDS_P2;PMS_P1;PMS_P2;Temp;Humidity;BMP_temperature;BMP_pressure;BME280_temperature;BME280_humidity;BME280_pressure;Samples;Min_cycle;Max_cycle;Signal;HPM_P1;HPM_P2
2022/12/28 00:01:13;;;;;;;8.70;5.82;;;4.20;99.90;;;;;;6231686;23;20303;-87
2022/12/28 00:03:41;;;;;;;4.85;4.30;;;4.20;99.90;;;;;;6231225;23;20194;-89
2022/12/28 00:06:08;;;;;;;8.10;4.82;;;4.20;99.90;;;;;;6231919;23;20735;-88
2022/12/28 00:08:36;;;;;;;7.97;5.47;;;4.60;99.90;;;;;;6231943;23;20172;-87
2022/12/28 00:11:07;;;;;;;5.88;5.22;;;4.30;99.90;;;;;;6232361;23;20198;-87
2022/12/28 00:13:35;;;;;;;9.88;5.72;;;4.30;99.90;;;;;;6233547;23;20187;-88
2022/12/28 00:16:12;;;;;;;7.18;6.43;;;4.30;99.90;;;;;;6234199;23;20707;-89
2022/12/28 00:18:40;;;;;;;8.70;5.55;;;4.30;99.90;;;;;;6234104;23;20174;-88
2022/12/28 00:21:07;;;;;;;12.63;6.45;;;4.40;13.90;;;;;;6232955;23;20218;-88
2022/12/28 00:23:34;;;;;;;11.00;5.95;;;4.40;1.00;;;;;;6236302;23;20172;-86
2022/12/28 00:26:10;;;;;;;14.75;7.72;;;4.40;1.00;;;;;;6225645;23;20210;-87
2022/12/28 00:28:37;;;;;;;19.55;9.00;;;4.40;1.00;;;;;;6228718;23;20164;-87
2022/12/28 00:31:04;;;;;;;8.85;6.28;;;4.50;1.00;;;;;;6235705;23;20202;-88
2022/12/28 00:33:34;;;;;;;9.05;5.30;;;4.50;1.00;;;;;;6243481;23;20175;-86
2022/12/28 00:36:03;;;;;;;9.10;4.70;;;4.50;1.00;;;;;;6240264;23;20195;-88
2022/12/28 00:38:31;;;;;;;7.03;4.47;;;4.20;1.00;;;;;;6234328;23;20202;-87
2022/12/28 00:40:58;;;;;;;3.95;3.65;;;4.50;1.00;;;;;;6234734;23;20179;-88
2022/12/28 00:43:25;;;;;;;8.25;4.13;;;4.20;1.00;;;;;;6235459;23;20164;-89
2022/12/28 00:45:52;;;;;;;6.57;4.20;;;4.50;1.00;;;;;;6234669;23;20581;-88
2022/12/28 00:48:19;;;;;;;8.10;4.65;;;4.50;1.00;;;;;;6233991;23;20227;-87
2022/12/28 00:50:47;;;;;;;6.10;4.30;;;4.60;1.00;;;;;;6232281;23;20210;-88
2022/12/28 00:53:14;;;;;;;6.40;4.50;;;4.60;1.00;;;;;;6233219;23;20235;-89
2022/12/28 00:55:41;;;;;;;7.20;3.85;;;5.60;1.00;;;;;;6233517;23;20234;-88
2022/12/28 00:58:09;;;;;;;6.63;4.38;;;4.60;1.00;;;;;;6236266;23;20163;-87
2022/12/28 01:00:40;;;;;;;6.00;4.50;;;4.60;1.00;;;;;;6243249;23;20160;-87
2022/12/28 01:03:07;;;;;;;4.43;3.67;;;4.60;99.90;;;;;;6242459;23;20171;-87
2022/12/28 01:05:33;;;;;;;4.75;3.72;;;4.60;99.90;;;;;;6242738;23;20179;-87
2022/12/28 01:08:02;;;;;;;6.35;4.72;;;4.60;99.90;;;;;;6240349;23;20182;-90
2022/12/28 01:10:29;;;;;;;5.82;4.75;;;4.70;99.90;;;;;;6240543;23;20176;-87
2022/12/28 01:12:55;;;;;;;9.23;5.00;;;4.70;99.90;;;;;;6243511;23;20232;-87
2022/12/28 01:15:22;;;;;;;12.25;4.63;;;4.50;1.00;;;;;;6240452;23;20175;-88
2022/12/28 01:17:49;;;;;;;6.97;4.70;;;4.70;99.90;;;;;;6239129;23;20185;-88
2022/12/28 01:20:16;;;;;;;9.88;4.32;;;5.00;1.00;;;;;;6238432;23;20179;-87
2022/12/28 01:22:43;;;;;;;4.68;4.05;;;;;;;;;;6235933;23;20199;-87
2022/12/28 01:25:12;;;;;;;4.50;4.05;;;4.50;1.00;;;;;;6234914;23;20210;-88
2022/12/28 01:27:41;;;;;;;7.80;4.35;;;4.70;99.90;;;;;;6236275;23;20186;-86
2022/12/28 01:30:10;;;;;;;11.13;4.63;;;4.70;99.90;;;;;;6236254;23;20187;-88
2022/12/28 01:32:37;;;;;;;7.97;5.10;;;4.70;99.90;;;;;;6238896;23;20176;-88
2022/12/28 01:35:04;;;;;;;11.55;5.00;;;4.70;99.90;;;;;;6238381;23;20191;-87
2022/12/28 01:37:31;;;;;;;8.98;4.10;;;4.90;1.00;;;;;;6236048;23;20179;-88
2022/12/28 01:39:59;;;;;;;7.97;4.80;;;4.70;99.90;;;;;;6236903;23;20179;-87
2022/12/28 01:42:27;;;;;;;6.25;3.72;;;4.70;99.90;;;;;;6235347;23;20191;-88
2022/12/28 01:44:54;;;;;;;3.70;3.40;;;4.70;99.90;;;;;;6235232;23;20179;-87
2022/12/28 01:47:25;;;;;;;6.70;4.28;;;4.60;99.90;;;;;;6234853;23;20214;-88
2022/12/28 01:50:00;;;;;;;4.00;3.53;;;4.60;99.90;;;;;;6234258;23;20218;-88
2022/12/28 01:52:32;;;;;;;7.78;4.40;;;4.60;99.90;;;;;;6235789;23;20166;-89
2022/12/28 01:55:04;;;;;;;4.70;3.92;;;4.60;99.90;;;;;;6233435;23;20191;-87
2022/12/28 01:57:39;;;;;;;7.35;3.83;;;4.50;99.90;;;;;;6235523;23;20588;-87
2022/12/28 02:00:10;;;;;;;5.00;4.40;;;4.60;99.90;;;;;;6233940;23;20163;-87
2022/12/28 02:02:38;;;;;;;10.45;5.70;;;4.50;99.90;;;;;;6236344;23;20183;-87
2022/12/28 02:05:07;;;;;;;4.88;3.88;;;4.40;1.00;;;;;;6245119;23;20156;-87
2022/12/28 02:07:40;;;;;;;5.85;4.25;;;3.80;1.00;;;;;;6245304;23;20185;-86
2022/12/28 02:10:08;;;;;;;4.45;4.05;;;4.50;1.00;;;;;;6245479;23;20162;-86
2022/12/28 02:12:37;;;;;;;6.88;4.25;;;4.40;99.90;;;;;;6239471;23;20181;-88
2022/12/28 02:15:05;;;;;;;5.55;3.95;;;4.70;1.00;;;;;;6236351;23;20184;-89
2022/12/28 02:17:33;;;;;;;11.95;4.05;;;4.40;1.00;;;;;;6234081;23;20203;-89
2022/12/28 02:20:00;;;;;;;6.28;4.30;;;4.30;1.00;;;;;;6233797;23;20179;-88
2022/12/28 02:23:04;;;;;;;7.32;3.97;;;4.30;1.00;;;;;;6231422;23;20601;-86
2022/12/28 02:25:59;;;;;;;4.75;4.13;;;4.30;1.00;;;;;;6210556;23;20205;-88
2022/12/28 02:28:54;;;;;;;5.82;4.10;;;4.30;1.00;;;;;;6227216;23;20255;-87
2022/12/28 02:31:28;;;;;;;4.45;3.47;;;4.30;1.00;;;;;;6228142;23;20254;-87
2022/12/28 02:34:04;;;;;;;10.40;4.38;;;4.30;1.00;;;;;;6230677;23;20223;-88
2022/12/28 02:36:38;;;;;;;9.63;4.00;;;4.30;1.00;;;;;;6230166;23;20255;-87
2022/12/28 02:39:12;;;;;;;9.05;3.20;;;4.20;1.00;;;;;;6230967;23;20623;-88
2022/12/28 02:41:42;;;;;;;4.30;3.90;;;4.20;1.00;;;;;;6230400;23;20206;-88
2022/12/28 02:44:10;;;;;;;8.95;5.43;;;4.10;1.00;;;;;;6231498;23;20187;-88
2022/12/28 02:52:16;;;;;;;7.70;4.78;;;4.10;1.00;;;;;;6232262;23;20167;-87
2022/12/28 02:58:04;;;;;;;6.30;4.10;;;4.10;1.00;;;;;;6231460;23;20166;-87
2022/12/28 03:00:40;;;;;;;6.55;4.43;;;4.00;1.00;;;;;;6239232;23;20211;-88
2022/12/28 03:03:21;;;;;;;6.97;4.57;;;4.00;1.00;;;;;;6237165;23;20235;-88
2022/12/28 03:08:49;;;;;;;5.07;3.88;;;4.00;1.00;;;;;;6238130;23;20469;-88
2022/12/28 03:11:19;;;;;;;9.00;4.82;;;4.00;1.00;;;;;;6235726;23;20163;-88
2022/12/28 03:13:54;;;;;;;5.30;4.10;;;4.00;1.00;;;;;;6233488;23;20184;-88
2022/12/28 03:16:27;;;;;;;5.05;4.53;;;4.00;1.00;;;;;;6232469;23;20262;-88
2022/12/28 03:32:54;;;;;;;4.35;3.90;;;3.90;13.50;;;;;;6232972;23;20159;-88
2022/12/28 03:35:27;;;;;;;7.20;4.40;;;4.10;99.90;;;;;;6232840;23;20207;-88
2022/12/28 03:37:59;;;;;;;4.65;3.65;;;3.90;1.00;;;;;;6233521;23;20170;-88
2022/12/28 03:40:32;;;;;;;11.40;5.00;;;3.80;1.00;;;;;;6234202;23;20672;-87
2022/12/28 03:45:54;;;;;;;4.85;4.13;;;3.80;1.00;;;;;;6235255;22;20248;-81
2022/12/28 03:48:23;;;;;;;8.32;4.15;;;3.80;99.90;;;;;;6252451;23;20178;-81
2022/12/28 03:50:51;;;;;;;7.78;4.85;;;3.80;1.00;;;;;;6253443;23;20238;-82
2022/12/28 03:53:22;;;;;;;10.63;4.10;;;3.80;1.00;;;;;;6252813;23;20213;-82
2022/12/28 03:55:49;;;;;;;9.50;4.22;;;3.80;1.00;;;;;;6256717;23;20223;-83
2022/12/28 03:58:16;;;;;;;6.40;4.13;;;3.80;1.00;;;;;;6233401;23;20186;-82
2022/12/28 04:00:43;;;;;;;5.63;3.40;;;4.10;5.90;;;;;;6225627;23;20259;-81
2022/12/28 04:03:10;;;;;;;4.30;3.60;;;3.80;1.00;;;;;;6222061;23;20595;-81
2022/12/28 04:05:38;;;;;;;5.50;4.05;;;3.60;99.90;;;;;;6222476;23;20254;-82
2022/12/28 04:08:05;;;;;;;4.57;4.15;;;3.90;20.60;;;;;;6234084;23;20159;-80
2022/12/28 04:10:32;;;;;;;4.47;3.22;;;3.70;1.00;;;;;;6244144;23;20167;-81
2022/12/28 04:12:58;;;;;;;8.80;3.70;;;3.70;1.00;;;;;;6244190;23;20202;-82
2022/12/28 04:15:25;;;;;;;5.90;3.78;;;4.00;32.70;;;;;;6233888;23;20175;-82
2022/12/28 04:17:52;;;;;;;4.38;4.07;;;3.80;1.00;;;;;;6223225;23;20565;-83
2022/12/28 04:20:19;;;;;;;3.75;3.22;;;4.00;40.70;;;;;;6222845;23;20523;-83
2022/12/28 04:22:47;;;;;;;5.25;3.20;;;3.50;1.00;;;;;;6221574;23;20201;-82
2022/12/28 04:25:14;;;;;;;5.40;3.80;;;3.80;1.00;;;;;;6221698;23;20210;-82
2022/12/28 04:27:41;;;;;;;5.40;3.75;;;4.00;1.00;;;;;;6230369;23;20528;-81
2022/12/28 04:30:08;;;;;;;6.80;3.67;;;3.80;1.00;;;;;;6232542;23;20202;-82
2022/12/28 04:32:35;;;;;;;5.55;5.05;;;3.80;1.00;;;;;;6225254;23;20246;-82
2022/12/28 04:35:02;;;;;;;14.38;3.55;;;3.70;1.00;;;;;;6222518;23;20179;-82
2022/12/28 04:37:29;;;;;;;3.53;3.13;;;3.70;1.00;;;;;;6222047;23;20233;-81
2022/12/28 04:39:57;;;;;;;3.80;3.50;;;3.80;1.00;;;;;;6222167;23;20213;-81
2022/12/28 04:42:24;;;;;;;3.33;2.95;;;3.80;1.00;;;;;;6222645;23;20509;-81
2022/12/28 04:44:51;;;;;;;4.53;2.80;;;3.80;99.90;;;;;;6222550;23;20250;-82
2022/12/28 04:47:18;;;;;;;6.25;3.47;;;3.80;1.00;;;;;;6222488;23;20241;-82
2022/12/28 04:49:45;;;;;;;4.70;3.38;;;3.90;99.90;;;;;;6221708;23;20259;-82
2022/12/28 04:52:12;;;;;;;7.75;3.15;;;3.90;99.90;;;;;;6222292;23;20234;-82
2022/12/28 04:54:39;;;;;;;4.45;3.15;;;3.60;1.00;;;;;;6221843;23;20179;-81
2022/12/28 04:57:07;;;;;;;7.03;3.53;;;3.90;99.90;;;;;;6222498;23;20498;-81
2022/12/28 04:59:33;;;;;;;5.97;3.13;;;3.90;99.90;;;;;;6222012;23;20669;-83
2022/12/28 05:02:00;;;;;;;7.10;3.35;;;3.90;99.90;;;;;;6220568;23;20181;-82
2022/12/28 05:04:27;;;;;;;4.22;3.03;;;3.90;99.90;;;;;;6221706;23;20261;-82
2022/12/28 05:06:54;;;;;;;4.90;2.67;;;3.50;99.90;;;;;;6235553;23;20206;-82
2022/12/28 05:09:21;;;;;;;4.65;2.83;;;3.80;99.90;;;;;;6237427;23;20210;-82
2022/12/28 05:11:48;;;;;;;3.47;3.05;;;4.00;99.90;;;;;;6237509;23;20209;-81
2022/12/28 05:14:16;;;;;;;3.38;2.75;;;3.80;99.90;;;;;;6234413;23;20176;-81
2022/12/28 05:16:42;;;;;;;5.97;3.22;;;4.00;99.90;;;;;;6231901;23;20206;-82
2022/12/28 05:19:09;;;;;;;4.18;2.60;;;3.90;99.90;;;;;;6235053;23;20206;-82
2022/12/28 05:21:36;;;;;;;3.97;3.10;;;3.90;99.90;;;;;;6238921;23;20167;-80
2022/12/28 05:24:03;;;;;;;5.20;3.20;;;3.90;99.90;;;;;;6245744;23;20195;-80
2022/12/28 05:26:30;;;;;;;2.88;2.67;;;3.90;99.90;;;;;;6245661;23;20206;-81
2022/12/28 05:28:58;;;;;;;15.18;3.53;;;3.90;99.90;;;;;;6228089;23;20178;-82
2022/12/28 05:31:27;;;;;;;6.50;3.45;;;3.90;99.90;;;;;;6224266;23;20249;-81
2022/12/28 05:33:54;;;;;;;6.75;2.53;;;4.00;99.90;;;;;;6235753;23;20175;-81
2022/12/28 05:36:22;;;;;;;5.30;3.30;;;4.00;99.90;;;;;;6237898;23;20206;-81
2022/12/28 05:38:49;;;;;;;5.13;2.85;;;4.00;99.90;;;;;;6239419;23;20190;-81
2022/12/28 05:41:18;;;;;;;3.67;2.60;;;4.00;99.90;;;;;;6238662;23;20235;-81
2022/12/28 05:43:47;;;;;;;6.00;3.47;;;4.00;99.90;;;;;;6236388;23;20278;-81
2022/12/28 05:46:18;;;;;;;7.28;4.00;;;4.10;99.90;;;;;;6224936;23;20561;-82
2022/12/28 05:48:47;;;;;;;6.05;2.72;;;4.20;1.00;;;;;;6224101;23;20235;-82
2022/12/28 05:51:16;;;;;;;3.13;2.10;;;4.20;1.00;;;;;;6225075;23;20262;-81
2022/12/28 05:53:43;;;;;;;2.78;2.67;;;4.10;7.60;;;;;;6223839;23;20206;-82
2022/12/28 05:56:12;;;;;;;6.45;2.83;;;4.00;99.90;;;;;;6225137;23;20270;-81
2022/12/28 05:58:39;;;;;;;8.20;3.25;;;4.10;99.90;;;;;;6225704;23;20254;-82
2022/12/28 06:01:09;;;;;;;4.43;3.85;;;4.10;99.90;;;;;;6225232;23;20195;-81
2022/12/28 06:03:36;;;;;;;5.10;3.30;;;4.10;69.70;;;;;;6226128;23;20226;-81
2022/12/28 06:06:06;;;;;;;4.00;2.28;;;3.70;99.90;;;;;;6224117;23;20221;-82
2022/12/28 06:08:33;;;;;;;7.05;3.35;;;4.20;56.60;;;;;;6223685;23;20623;-81
2022/12/28 06:11:02;;;;;;;4.03;2.63;;;4.20;99.90;;;;;;6228663;23;20584;-82
2022/12/28 06:13:29;;;;;;;2.53;2.38;;;4.20;57.90;;;;;;6220153;23;20175;-82
2022/12/28 06:15:56;;;;;;;2.63;2.42;;;4.20;1.00;;;;;;6231369;23;20222;-82
2022/12/28 06:18:23;;;;;;;5.00;2.63;;;4.10;99.90;;;;;;6240463;23;20179;-82
2022/12/28 06:20:57;;;;;;;5.60;2.50;;;4.20;1.00;;;;;;6240473;23;20210;-81
2022/12/28 06:23:25;;;;;;;2.78;2.30;;;4.30;1.00;;;;;;6242701;23;20180;-82
2022/12/28 06:25:52;;;;;;;4.20;2.85;;;4.20;99.90;;;;;;6228760;23;20227;-81
2022/12/28 06:28:19;;;;;;;3.80;2.40;;;4.20;99.90;;;;;;6228409;23;20210;-82
2022/12/28 06:30:45;;;;;;;3.55;3.00;;;4.30;1.00;;;;;;6231877;23;20203;-82
2022/12/28 06:33:12;;;;;;;8.18;3.45;;;4.40;1.00;;;;;;6229307;23;20175;-82
2022/12/28 06:35:40;;;;;;;6.55;2.92;;;4.50;99.90;;;;;;6224833;23;20181;-82
2022/12/28 06:38:07;;;;;;;4.38;2.55;;;4.40;1.00;;;;;;6226507;23;20190;-82
2022/12/28 06:40:35;;;;;;;5.95;2.65;;;4.40;1.00;;;;;;6226371;23;20179;-82
2022/12/28 06:43:02;;;;;;;2.97;2.65;;;4.40;1.00;;;;;;6225664;23;20589;-83
2022/12/28 06:45:29;;;;;;;8.93;2.72;;;3.50;99.90;;;;;;6223589;23;20519;-82
2022/12/28 06:47:56;;;;;;;3.35;2.55;;;4.80;99.30;;;;;;6224383;23;20198;-82
2022/12/28 06:50:22;;;;;;;3.20;3.00;;;4.50;99.90;;;;;;6219881;23;20175;-82
2022/12/28 06:52:49;;;;;;;6.15;2.92;;;4.40;1.00;;;;;;6218834;23;20247;-81
2022/12/28 06:55:16;;;;;;;6.35;2.70;;;4.40;99.90;;;;;;6218632;23;20571;-82
2022/12/28 06:57:44;;;;;;;3.75;3.22;;;4.30;99.90;;;;;;6219947;23;20195;-82
2022/12/28 07:00:12;;;;;;;4.32;3.33;;;4.30;99.90;;;;;;6219165;23;20179;-82
2022/12/28 07:02:39;;;;;;;4.88;2.25;;;4.20;99.90;;;;;;6218832;23;20175;-82
2022/12/28 07:05:06;;;;;;;9.00;3.55;;;4.30;99.90;;;;;;6218819;23;20258;-82
2022/12/28 07:07:33;;;;;;;4.55;2.22;;;4.20;1.00;;;;;;6218585;23;20675;-82
2022/12/28 07:10:00;;;;;;;4.20;3.08;;;4.30;99.90;;;;;;6220880;23;20266;-82
2022/12/28 07:12:26;;;;;;;5.18;3.03;;;4.30;99.90;;;;;;6219340;23;20207;-81
2022/12/28 07:14:55;;;;;;;4.15;3.25;;;4.30;1.00;;;;;;6220089;23;20263;-82
2022/12/28 07:17:21;;;;;;;5.25;2.92;;;4.20;1.00;;;;;;6220158;23;20195;-81
2022/12/28 07:19:50;;;;;;;4.15;2.65;;;4.20;1.00;;;;;;6221196;23;20277;-83
2022/12/28 07:22:17;;;;;;;5.60;3.15;;;4.20;1.00;;;;;;6223428;23;20179;-82
2022/12/28 07:24:43;;;;;;;4.93;4.47;;;4.20;1.00;;;;;;6219023;23;20516;-82
2022/12/28 07:27:10;;;;;;;4.82;3.00;;;4.20;1.00;;;;;;6219671;23;20195;-82
2022/12/28 07:29:37;;;;;;;4.65;3.15;;;4.20;1.00;;;;;;6218060;23;20717;-82
2022/12/28 07:32:05;;;;;;;4.70;3.63;;;4.20;1.00;;;;;;6218218;23;20519;-82
2022/12/28 07:34:32;;;;;;;5.70;3.42;;;4.30;1.00;;;;;;6217860;23;20181;-82
2022/12/28 07:36:59;;;;;;;7.90;4.32;;;4.40;1.00;;;;;;6217577;23;20759;-82
2022/12/28 07:39:25;;;;;;;3.40;3.10;;;4.30;1.00;;;;;;6218075;23;20179;-82
2022/12/28 07:41:52;;;;;;;5.90;3.75;;;4.30;1.00;;;;;;6217573;23;20206;-83
2022/12/28 07:44:19;;;;;;;5.88;3.58;;;4.40;1.00;;;;;;6218318;23;20646;-82
2022/12/28 07:46:46;;;;;;;5.93;3.70;;;4.40;1.00;;;;;;6217415;23;20203;-82
2022/12/28 07:49:14;;;;;;;2.95;2.70;;;4.30;1.00;;;;;;6218178;23;20175;-82
2022/12/28 07:51:41;;;;;;;5.07;3.75;;;4.60;1.00;;;;;;6227638;23;20180;-82
2022/12/28 07:54:08;;;;;;;7.80;3.97;;;4.20;1.00;;;;;;6218688;23;20624;-82
2022/12/28 07:56:35;;;;;;;5.18;2.97;;;4.50;1.00;;;;;;6217356;23;20269;-81
2022/12/28 07:59:03;;;;;;;3.97;3.13;;;4.50;1.00;;;;;;6216992;23;20189;-81
2022/12/28 08:01:32;;;;;;;6.70;3.10;;;4.50;1.00;;;;;;6217003;23;20666;-81
2022/12/28 08:04:00;;;;;;;4.97;3.70;;;4.50;1.00;;;;;;6216712;23;20672;-81
2022/12/28 08:06:29;;;;;;;4.55;3.55;;;4.50;1.00;;;;;;6216862;23;20195;-82
2022/12/28 08:09:00;;;;;;;4.15;3.58;;;4.60;1.00;;;;;;6217402;23;20179;-81
2022/12/28 08:11:29;;;;;;;8.00;4.07;;;4.60;1.00;;;;;;6218274;23;20241;-81
2022/12/28 08:13:57;;;;;;;10.20;3.70;;;4.60;1.00;;;;;;6218675;23;20175;-82
2022/12/28 08:16:26;;;;;;;12.40;5.97;;;4.60;1.00;;;;;;6218900;23;20247;-81
2022/12/28 08:18:54;;;;;;;6.63;3.30;;;4.50;1.00;;;;;;6221579;23;20222;-81
2022/12/28 08:21:29;;;;;;;5.45;4.07;;;5.00;1.00;;;;;;6224025;23;20210;-82
2022/12/28 08:23:58;;;;;;;8.10;3.90;;;4.70;1.00;;;;;;6224652;23;20213;-82
2022/12/28 08:26:26;;;;;;;3.63;3.33;;;5.00;1.00;;;;;;6225322;23;20195;-82
2022/12/28 08:28:55;;;;;;;6.53;3.90;;;4.70;1.00;;;;;;6225924;23;20190;-81
2022/12/28 08:31:25;;;;;;;7.10;3.45;;;4.80;1.00;;;;;;6226083;23;20186;-81
2022/12/28 08:33:54;;;;;;;8.68;4.45;;;4.70;1.00;;;;;;6223970;23;20241;-81
2022/12/28 08:36:22;;;;;;;8.20;5.15;;;4.90;1.00;;;;;;6220084;23;20219;-82
2022/12/28 08:38:50;;;;;;;7.35;3.65;;;4.90;1.00;;;;;;6218074;23;20178;-81
2022/12/28 08:41:20;;;;;;;4.40;3.40;;;4.90;1.00;;;;;;6218510;23;20181;-82
2022/12/28 08:43:47;;;;;;;3.67;3.25;;;4.90;1.00;;;;;;6218787;23;20245;-82
2022/12/28 08:46:16;;;;;;;4.18;3.33;;;5.00;1.00;;;;;;6217978;23;20275;-82
2022/12/28 08:48:45;;;;;;;5.63;3.10;;;5.10;1.00;;;;;;6217829;23;20746;-82
2022/12/28 08:51:14;;;;;;;3.35;2.65;;;5.10;1.00;;;;;;6218028;23;20179;-82
2022/12/28 08:53:41;;;;;;;8.77;4.05;;;5.10;1.00;;;;;;6217497;23;20179;-83
2022/12/28 08:56:10;;;;;;;4.38;3.00;;;5.30;1.00;;;;;;6221523;23;20191;-81
2022/12/28 08:58:40;;;;;;;3.05;2.70;;;5.20;1.00;;;;;;6237371;23;20182;-82
2022/12/28 09:01:09;;;;;;;3.60;2.80;;;5.60;1.00;;;;;;6240936;23;20163;-81
2022/12/28 09:03:37;;;;;;;3.20;2.90;;;5.30;1.00;;;;;;6241842;23;20190;-81
2022/12/28 09:06:05;;;;;;;8.10;3.40;;;5.20;1.00;;;;;;6240798;23;20195;-81
2022/12/28 09:08:32;;;;;;;6.15;3.35;;;5.40;1.00;;;;;;6239167;23;20210;-81
2022/12/28 09:11:00;;;;;;;6.85;2.92;;;5.40;99.90;;;;;;6222899;23;20195;-82
2022/12/28 09:13:27;;;;;;;3.35;3.05;;;5.40;99.90;;;;;;6222605;23;20180;-82
2022/12/28 09:16:00;;;;;;;5.25;3.22;;;5.60;99.90;;;;;;6221786;23;20206;-82
2022/12/28 09:18:28;;;;;;;4.03;2.75;;;5.40;1.00;;;;;;6223282;23;20565;-82
2022/12/28 09:20:54;;;;;;;4.20;3.17;;;5.60;99.90;;;;;;6221646;23;20263;-82
2022/12/28 09:23:22;;;;;;;3.83;3.45;;;5.60;99.90;;;;;;6221217;23;20570;-82
2022/12/28 09:25:48;;;;;;;10.13;3.65;;;5.60;99.90;;;;;;6220345;23;20202;-82
2022/12/28 09:28:20;;;;;;;4.50;2.58;;;5.60;99.90;;;;;;6218688;23;20183;-82
2022/12/28 09:30:47;;;;;;;4.03;3.20;;;5.90;1.00;;;;;;6233038;23;20164;-82
2022/12/28 09:35:59;;;;;;;6.47;3.55;;;5.70;1.00;;;;;;6229105;23;20241;-82
2022/12/28 09:38:26;;;;;;;4.65;4.25;;;5.50;1.00;;;;;;6228526;23;20206;-81
2022/12/28 09:40:53;;;;;;;6.97;3.70;;;5.60;1.00;;;;;;6232428;23;20227;-83
2022/12/28 09:43:20;;;;;;;6.30;3.33;;;6.30;1.00;;;;;;6224505;23;20266;-81
2022/12/28 09:48:18;;;;;;;4.10;3.47;;;5.70;1.00;;;;;;6266924;22;20195;-87
2022/12/28 09:50:48;;;;;;;4.10;3.10;;;6.10;1.00;;;;;;6271569;22;20167;-87
2022/12/28 09:53:35;;;;;;;5.20;4.75;;;5.70;1.00;;;;;;6260314;22;20217;-87
2022/12/28 09:56:06;;;;;;;4.25;3.35;;;5.70;1.00;;;;;;6256487;22;20167;-86
2022/12/28 09:58:37;;;;;;;5.00;3.85;;;5.80;1.00;;;;;;6243215;23;20171;-86
2022/12/28 10:01:05;;;;;;;4.30;3.13;;;5.80;1.00;;;;;;6239726;23;20167;-86
2022/12/28 10:03:37;;;;;;;3.47;3.10;;;5.90;1.00;;;;;;6235564;23;20206;-88
2022/12/28 10:06:09;;;;;;;5.40;4.00;;;5.50;1.00;;;;;;6234315;23;20167;-88
2022/12/28 10:08:41;;;;;;;3.00;2.70;;;5.90;1.00;;;;;;6232870;23;20170;-88
2022/12/28 10:11:08;;;;;;;4.15;3.30;;;6.00;1.00;;;;;;6231035;23;20215;-87
2022/12/28 10:13:38;;;;;;;3.90;3.50;;;6.00;99.90;;;;;;6231431;23;20198;-88
2022/12/28 10:16:06;;;;;;;5.07;3.25;;;6.00;1.00;;;;;;6231550;23;20210;-88
2022/12/28 10:18:36;;;;;;;6.70;3.90;;;6.10;99.90;;;;;;6233549;23;20210;-87
2022/12/28 10:21:07;;;;;;;4.07;3.67;;;6.70;1.00;;;;;;6244502;23;20201;-87
2022/12/28 10:23:36;;;;;;;5.82;4.32;;;6.20;99.90;;;;;;6243234;23;20175;-86
2022/12/28 10:26:05;;;;;;;4.13;3.78;;;6.10;1.00;;;;;;6232905;23;20209;-87
2022/12/28 10:28:43;;;;;;;5.03;3.60;;;6.30;99.90;;;;;;6231023;23;20227;-87
2022/12/28 10:31:11;;;;;;;4.32;3.92;;;6.30;99.90;;;;;;6232910;23;20190;-87
2022/12/28 10:33:42;;;;;;;6.43;3.50;;;6.30;99.90;;;;;;6234753;23;20179;-86
2022/12/28 10:36:13;;;;;;;5.75;4.07;;;6.30;99.90;;;;;;6231027;23;20222;-88
2022/12/28 10:38:43;;;;;;;5.05;2.80;;;6.40;99.90;;;;;;6232918;23;20171;-87
2022/12/28 10:41:13;;;;;;;3.13;2.78;;;6.40;1.00;;;;;;6239762;23;20179;-87
2022/12/28 10:43:41;;;;;;;6.68;3.28;;;6.40;1.00;;;;;;6234364;23;20164;-87
2022/12/28 10:46:17;;;;;;;3.45;3.25;;;6.30;1.00;;;;;;6232332;23;20214;-87
2022/12/28 10:48:49;;;;;;;6.45;3.85;;;6.30;1.00;;;;;;6230999;23;20187;-89
2022/12/28 10:51:22;;;;;;;3.13;2.85;;;6.30;1.00;;;;;;6232068;23;20187;-88
2022/12/28 10:53:50;;;;;;;3.15;2.85;;;6.40;1.00;;;;;;6230362;23;20168;-88
2022/12/28 10:56:22;;;;;;;4.97;3.20;;;6.90;1.00;;;;;;6229297;23;20226;-87
2022/12/28 10:58:51;;;;;;;4.53;3.65;;;6.70;1.00;;;;;;6229154;23;20175;-88
2022/12/28 11:01:23;;;;;;;4.50;3.72;;;6.40;1.00;;;;;;6230214;23;20624;-88
2022/12/28 11:04:02;;;;;;;4.57;3.10;;;6.40;1.00;;;;;;6231099;23;20243;-88
2022/12/28 11:06:30;;;;;;;4.18;3.25;;;6.50;1.00;;;;;;6231582;23;20218;-88
2022/12/28 11:09:05;;;;;;;4.25;3.88;;;6.60;1.00;;;;;;6233906;23;20206;-87
2022/12/28 11:11:32;;;;;;;5.78;3.75;;;6.60;1.00;;;;;;6245024;23;20150;-86
2022/12/28 11:14:03;;;;;;;5.80;3.80;;;7.00;1.00;;;;;;6244663;23;20159;-86
2022/12/28 11:16:35;;;;;;;4.20;3.90;;;6.70;1.00;;;;;;6244548;23;20183;-86
2022/12/28 11:19:03;;;;;;;4.55;4.13;;;6.80;1.00;;;;;;6244710;23;20191;-87
2022/12/28 11:21:33;;;;;;;5.28;4.20;;;6.80;1.00;;;;;;6244625;23;20227;-87
2022/12/28 11:24:00;;;;;;;4.15;3.47;;;7.80;1.00;;;;;;6242857;23;20169;-87
2022/12/28 11:26:28;;;;;;;4.05;3.53;;;6.90;99.90;;;;;;6240964;23;20255;-87
2022/12/28 11:28:55;;;;;;;3.80;3.20;;;6.90;99.90;;;;;;6241438;23;20237;-88
2022/12/28 11:31:27;;;;;;;3.60;2.90;;;7.00;99.90;;;;;;6243332;23;20171;-87
2022/12/28 11:33:57;;;;;;;3.65;3.10;;;7.00;99.90;;;;;;6243295;23;20166;-86
2022/12/28 11:36:27;;;;;;;3.47;3.17;;;7.00;99.90;;;;;;6242735;23;20197;-86
2022/12/28 11:38:56;;;;;;;3.95;3.55;;;7.00;99.90;;;;;;6241321;23;20163;-88
2022/12/28 11:41:42;;;;;;;4.57;3.33;;;6.90;99.90;;;;;;6242075;23;20206;-89
2022/12/28 11:44:21;;;;;;;4.15;3.38;;;7.10;99.90;;;;;;6239239;23;20178;-87
2022/12/28 11:47:03;;;;;;;4.05;3.50;;;7.10;99.90;;;;;;6238193;23;20233;-88
2022/12/28 11:49:35;;;;;;;4.15;3.72;;;7.00;99.90;;;;;;6237517;23;20163;-88
2022/12/28 11:52:45;;;;;;;4.50;3.10;;;7.30;99.90;;;;;;6237131;23;20178;-88
2022/12/28 11:55:38;;;;;;;4.43;3.95;;;7.20;99.90;;;;;;6237051;23;20186;-88
2022/12/28 11:58:42;;;;;;;3.33;3.05;;;7.10;99.90;;;;;;6235896;23;20226;-89
2022/12/28 12:01:09;;;;;;;6.65;4.47;;;7.00;1.00;;;;;;6212072;23;20179;-88
2022/12/28 12:04:09;;;;;;;4.70;2.95;;;7.10;99.90;;;;;;6231576;23;20179;-89
2022/12/28 12:07:22;;;;;;;3.00;2.80;;;7.20;99.90;;;;;;6232053;23;20191;-88
2022/12/28 12:10:06;;;;;;;3.83;3.53;;;7.20;99.90;;;;;;6190909;23;20209;-87
2022/12/28 12:12:37;;;;;;;6.03;4.68;;;7.20;99.90;;;;;;6236097;23;20179;-88
2022/12/28 12:15:11;;;;;;;4.25;3.88;;;7.20;99.90;;;;;;6232224;23;20235;-88
2022/12/28 12:17:44;;;;;;;3.00;2.80;;;7.20;99.90;;;;;;6231169;23;20229;-87
2022/12/28 12:20:28;;;;;;;3.53;3.08;;;7.20;99.90;;;;;;6230629;23;20476;-88
2022/12/28 12:23:00;;;;;;;3.85;3.30;;;7.20;99.90;;;;;;6230958;23;20195;-89
2022/12/28 12:25:35;;;;;;;4.70;3.28;;;7.20;99.90;;;;;;6229280;23;20732;-88
2022/12/28 12:28:08;;;;;;;3.45;3.15;;;7.20;99.90;;;;;;6230034;23;20209;-88
2022/12/28 12:30:36;;;;;;;4.35;3.75;;;7.30;99.90;;;;;;6230867;23;20195;-87
2022/12/28 12:33:06;;;;;;;3.60;3.17;;;7.40;99.90;;;;;;6230037;23;20206;-88
2022/12/28 12:35:44;;;;;;;4.72;3.65;;;7.50;99.90;;;;;;6235668;23;20553;-86
2022/12/28 12:38:26;;;;;;;6.35;3.92;;;7.60;88.20;;;;;;6233974;23;20253;-86
2022/12/28 12:41:15;;;;;;;4.20;3.30;;;7.60;87.10;;;;;;6231746;23;20183;-88
2022/12/28 12:43:55;;;;;;;3.63;2.80;;;7.60;99.90;;;;;;6223017;23;20164;-86
2022/12/28 12:47:01;;;;;;;3.10;2.80;;;7.60;99.90;;;;;;6224166;23;20543;-86
2022/12/28 12:49:42;;;;;;;2.77;2.57;;;7.40;95.30;;;;;;6229994;23;20239;-88
2022/12/28 12:52:26;;;;;;;6.97;4.93;;;7.70;1.00;;;;;;6230406;23;20856;-89
2022/12/28 12:55:06;;;;;;;4.28;3.17;;;7.80;1.00;;;;;;6234844;23;20159;-88
2022/12/28 12:57:37;;;;;;;3.38;2.90;;;7.90;1.00;;;;;;6229630;23;20687;-87
2022/12/28 13:00:13;;;;;;;5.63;3.47;;;8.00;1.00;;;;;;6232522;23;20211;-88
2022/12/28 13:03:09;;;;;;;3.83;3.38;;;8.00;1.00;;;;;;6232262;23;20163;-88
2022/12/28 13:05:41;;;;;;;3.67;3.17;;;8.10;99.90;;;;;;6231555;23;20250;-86
2022/12/28 13:08:19;;;;;;;3.93;3.63;;;8.20;99.90;;;;;;6231922;23;20445;-90
2022/12/28 13:10:46;;;;;;;3.27;2.97;;;8.20;99.90;;;;;;6230850;23;20845;-89
2022/12/28 13:13:19;;;;;;;3.10;2.90;;;8.20;80.60;;;;;;6232869;23;20447;-88
2022/12/28 13:15:48;;;;;;;4.37;2.57;;;8.20;99.90;;;;;;6230747;23;20354;-89
2022/12/28 13:18:17;;;;;;;4.23;3.40;;;8.20;1.00;;;;;;6234270;23;20443;-87
2022/12/28 13:20:52;;;;;;;3.47;2.93;;;8.30;1.30;;;;;;6237976;23;20377;-88
2022/12/28 13:23:22;;;;;;;2.97;2.72;;;8.30;36.00;;;;;;6242145;23;20369;-87
2022/12/28 13:25:51;;;;;;;3.00;2.70;;;8.00;99.90;;;;;;6236932;23;20195;-88
2022/12/28 13:28:21;;;;;;;4.57;3.70;;;8.20;81.00;;;;;;6235586;23;20381;-86
2022/12/28 13:31:05;;;;;;;4.37;3.40;;;8.20;99.90;;;;;;6243767;23;20403;-87
2022/12/28 13:33:32;;;;;;;4.28;3.35;;;8.10;99.90;;;;;;6245035;23;20365;-87
2022/12/28 13:36:17;;;;;;;4.03;3.33;;;8.40;1.00;;;;;;6239500;23;20172;-87
2022/12/28 13:38:44;;;;;;;4.50;3.10;;;8.10;99.90;;;;;;6229406;23;20710;-88
2022/12/28 13:41:21;;;;;;;5.03;3.25;;;8.10;99.90;;;;;;6229189;23;20917;-88
2022/12/28 13:44:24;;;;;;;7.25;4.03;;;8.30;1.00;;;;;;6229979;23;20215;-87
2022/12/28 13:46:57;;;;;;;5.13;3.67;;;8.00;1.00;;;;;;6216026;23;20263;-87
2022/12/28 13:49:25;;;;;;;7.00;3.30;;;8.00;1.00;;;;;;6232148;23;20198;-88
2022/12/28 13:51:53;;;;;;;4.32;3.33;;;8.20;20.60;;;;;;6233238;23;20377;-87
2022/12/28 13:54:23;;;;;;;4.13;3.50;;;8.00;1.00;;;;;;6233090;23;20180;-87